Pagina principale
METAR-TAF:

METAR-TAF

Aeroporti :

Paganella, Italia

latitudine: 46-09N, longitudine: 011-02E, altezza: 2125 m

Osservazione

Il bollettino è stato emesso 1 ora e 1 minuti fa, alle 01:55 UTC
Vento calmo
Temperature 6°C
Umidità 81%
Pressione 1023 hPa
Visibilità 10 km o più
nessuna nube inferiore a 1500 m e nessun cumulonembo

METAR: LIVP 190155Z 00000KT CAVOK 06/03 Q1023

Ora: 04:56 (02:56 UTC)


TAF: mancante

Osservazioni e previsioni meteorologiche di più di 4000 aeroporti (messaggi METAR e TAF).

Le stazioni disponibili sono rappresentate dai dischi gialli e rossi sulla carta.

Puntare il mouse per vedere il nome della stazione.

Clicca sopra per visualizzare le osservazioni e previsioni meteorologiche.

Per cambiare la mappa : fare clic sui pulsanti verdi con una croce nera per ingrandire, il pulsante verde con un trattino per diminuire, o sulla freccia verde per le mappe adiacenti.


METAR-TAF: